Terminal Aerodrome Forecast
Issued by NWS Mt. Holly, NJ

Home | Current Version | Previous Version | Text Only | Print | Product List | Glossary On
Versions: 1 2 3 4 5 6 7 8 9 10 11 12 13 14 15 16 17 18 19 20 21 22 23 24 25 26 27 28 29 30 31 32 33 34
000
FTUS41 KPHI 230535
TAFRDG
TAF
KRDG 230535Z 2306/2406 17005KT P6SM BKN200
     FM231400 19007KT P6SM OVC050
     FM231600 19008KT P6SM OVC035
     FM232100 18007KT P6SM -RA OVC025 WS020/20040KT
     FM240000 18007KT 5SM -RA BR OVC010 WS020/20045KT
     FM240300 18007KT 3SM -RA BR OVC007 WS020/20045KT=

USA.gov is the U.S. government's official web portal to all federal, state and local government web resources and services.